Time;durP1;ratioP1;P1;durP2;ratioP2;P2;SDS_P1;SDS_P2;PMS_P1;PMS_P2;Temp;Humidity;BMP_temperature;BMP_pressure;BME280_temperature;BME280_humidity;BME280_pressure;Samples;Min_cycle;Max_cycle;Signal;HPM_P1;HPM_P2
2023/02/01 00:01:57;;;;;;;18.05;4.32;;;6.50;99.90;;;;;;4090840;28;20399;-70
2023/02/01 00:03:57;;;;;;;13.65;4.07;;;6.50;99.90;;;;;;4091724;28;20035;-70
2023/02/01 00:05:59;;;;;;;14.70;4.85;;;6.50;99.90;;;;;;4088707;28;20115;-70
2023/02/01 00:07:59;;;;;;;19.23;4.97;;;6.60;99.90;;;;;;4090653;28;20138;-70
2023/02/01 00:10:00;;;;;;;19.73;4.72;;;6.60;99.90;;;;;;4090138;28;20138;-70
2023/02/01 00:12:02;;;;;;;20.60;4.82;;;6.60;99.90;;;;;;4078555;29;20028;-70
2023/02/01 00:14:03;;;;;;;19.13;5.22;;;6.60;99.90;;;;;;4090326;28;20039;-70
2023/02/01 00:16:06;;;;;;;16.33;4.15;;;6.60;99.90;;;;;;4090357;28;20027;-70
2023/02/01 00:18:06;;;;;;;12.52;4.07;;;6.60;99.90;;;;;;4089753;28;20372;-70
2023/02/01 00:20:08;;;;;;;15.18;4.53;;;6.60;99.90;;;;;;4089736;28;20035;-71
2023/02/01 00:22:08;;;;;;;16.92;4.72;;;6.70;99.90;;;;;;4092326;28;20533;-70
2023/02/01 00:24:10;;;;;;;11.40;3.50;;;6.70;99.90;;;;;;4091339;28;20039;-70
2023/02/01 00:26:15;;;;;;;19.73;4.60;;;6.70;99.90;;;;;;4089834;28;20511;-70
2023/02/01 00:28:15;;;;;;;14.77;4.28;;;6.70;99.90;;;;;;4090155;28;20051;-70
2023/02/01 00:30:17;;;;;;;11.80;3.97;;;6.70;99.90;;;;;;4073037;29;20028;-70
2023/02/01 00:32:18;;;;;;;17.80;5.47;;;6.80;99.90;;;;;;4091387;28;20043;-71
2023/02/01 00:34:19;;;;;;;17.83;5.55;;;6.80;99.90;;;;;;4091219;28;20034;-70
2023/02/01 00:36:20;;;;;;;23.25;5.28;;;6.70;99.90;;;;;;4090854;28;20039;-71
2023/02/01 00:38:21;;;;;;;14.80;4.90;;;6.80;99.90;;;;;;4090035;28;20050;-70
2023/02/01 00:40:21;;;;;;;17.75;5.68;;;6.80;99.90;;;;;;4089634;28;20086;-71
2023/02/01 00:42:22;;;;;;;23.05;6.85;;;6.80;99.90;;;;;;4091341;28;20047;-70
2023/02/01 00:44:22;;;;;;;15.88;6.22;;;6.80;99.90;;;;;;4090758;28;20047;-71
2023/02/01 00:46:23;;;;;;;25.15;7.25;;;6.90;99.90;;;;;;4090218;28;20043;-71
2023/02/01 00:48:24;;;;;;;21.55;6.10;;;6.80;99.90;;;;;;4090564;28;20526;-70
2023/02/01 00:50:25;;;;;;;19.85;7.47;;;6.80;99.90;;;;;;4089576;28;20054;-70
2023/02/01 00:52:25;;;;;;;21.33;6.93;;;6.80;99.90;;;;;;4090229;28;20095;-70
2023/02/01 00:54:26;;;;;;;24.95;6.72;;;6.90;99.90;;;;;;4089015;28;20628;-70
2023/02/01 00:56:27;;;;;;;21.15;6.22;;;6.90;99.90;;;;;;4088486;28;20043;-71
2023/02/01 00:58:28;;;;;;;19.35;6.20;;;6.80;99.90;;;;;;4090315;28;20150;-70
2023/02/01 01:00:28;;;;;;;20.55;5.75;;;6.80;99.90;;;;;;4088290;28;20122;-70
2023/02/01 01:02:29;;;;;;;17.27;5.85;;;6.80;99.90;;;;;;4087797;28;20027;-70
2023/02/01 01:04:29;;;;;;;22.23;5.75;;;6.90;99.90;;;;;;4091061;28;20039;-70
2023/02/01 01:06:32;;;;;;;24.40;6.38;;;6.90;99.90;;;;;;4089607;28;20039;-70
2023/02/01 01:08:33;;;;;;;17.23;5.65;;;6.90;99.90;;;;;;4088687;28;20498;-70
2023/02/01 01:10:34;;;;;;;19.25;5.93;;;6.90;99.90;;;;;;4087900;28;20039;-70
2023/02/01 01:12:35;;;;;;;15.88;5.60;;;6.90;99.90;;;;;;4089483;28;20035;-71
2023/02/01 01:14:35;;;;;;;23.48;6.00;;;6.90;99.90;;;;;;4088820;28;20040;-70
2023/02/01 01:16:36;;;;;;;16.42;5.30;;;6.90;99.90;;;;;;4088337;28;20043;-70
2023/02/01 01:18:38;;;;;;;23.10;5.35;;;6.90;99.90;;;;;;4089150;28;20054;-70
2023/02/01 01:20:40;;;;;;;14.15;5.20;;;6.90;99.90;;;;;;4092314;28;20114;-70
2023/02/01 01:22:41;;;;;;;20.25;5.22;;;6.90;99.90;;;;;;4090069;28;20027;-70
2023/02/01 01:24:41;;;;;;;14.32;5.18;;;6.90;99.90;;;;;;4090529;28;20134;-70
2023/02/01 01:26:42;;;;;;;18.88;4.93;;;6.90;99.90;;;;;;4089991;28;20039;-71
2023/02/01 01:28:42;;;;;;;17.17;5.15;;;6.90;99.90;;;;;;4090626;28;20071;-70
2023/02/01 01:30:43;;;;;;;16.75;4.68;;;6.80;99.90;;;;;;4089314;28;20031;-70
2023/02/01 01:32:44;;;;;;;20.90;4.97;;;6.80;99.90;;;;;;4090753;28;20039;-71
2023/02/01 01:34:45;;;;;;;16.75;4.95;;;6.80;99.90;;;;;;4089140;28;20055;-70
2023/02/01 01:36:45;;;;;;;18.23;4.40;;;6.80;99.90;;;;;;4089682;28;20118;-71
2023/02/01 01:38:46;;;;;;;18.15;4.75;;;6.80;99.90;;;;;;4090360;28;20443;-70
2023/02/01 01:40:49;;;;;;;19.38;4.82;;;6.80;99.90;;;;;;4089810;28;20454;-70
2023/02/01 01:42:53;;;;;;;18.70;4.80;;;6.80;99.90;;;;;;4089670;28;20042;-70
2023/02/01 01:45:07;;;;;;;19.40;4.20;;;6.80;99.90;;;;;;4089809;28;20031;-70
2023/02/01 01:47:09;;;;;;;17.67;4.47;;;6.80;99.90;;;;;;4090066;28;20118;-69
2023/02/01 01:49:21;;;;;;;15.65;3.83;;;6.70;99.90;;;;;;4090484;28;20043;-70
2023/02/01 01:51:24;;;;;;;26.30;5.15;;;6.70;99.90;;;;;;4090029;28;20062;-70
2023/02/01 01:53:29;;;;;;;18.02;4.75;;;6.70;99.90;;;;;;4089294;28;20127;-70
2023/02/01 01:55:33;;;;;;;23.13;4.28;;;6.70;99.90;;;;;;4088114;28;20628;-70
2023/02/01 01:57:39;;;;;;;19.05;3.92;;;6.70;99.90;;;;;;4089065;28;20040;-70
2023/02/01 01:59:43;;;;;;;18.35;4.05;;;6.70;99.90;;;;;;4089529;28;20035;-70
2023/02/01 02:01:43;;;;;;;11.55;3.15;;;6.70;99.90;;;;;;4089068;28;20043;-69
2023/02/01 02:03:45;;;;;;;12.05;3.70;;;6.70;99.90;;;;;;4088376;28;20175;-70
2023/02/01 02:05:49;;;;;;;20.00;4.40;;;6.70;99.90;;;;;;4088193;28;20027;-70
2023/02/01 02:07:52;;;;;;;20.13;4.47;;;6.70;99.90;;;;;;4088706;28;20401;-70
2023/02/01 02:09:52;;;;;;;19.45;4.60;;;6.70;99.90;;;;;;4088084;28;20051;-70
2023/02/01 02:11:53;;;;;;;20.80;3.90;;;6.70;99.90;;;;;;4088601;28;20082;-70
2023/02/01 02:13:56;;;;;;;14.38;3.47;;;6.60;99.90;;;;;;4090203;28;20036;-70
2023/02/01 02:15:56;;;;;;;;;;;6.60;99.90;;;;;;4088293;28;20039;-70
2023/02/01 02:18:18;;;;;;;14.63;3.53;;;6.60;99.90;;;;;;4092939;28;20334;-70
2023/02/01 02:20:56;;;;;;;17.43;4.03;;;6.60;99.90;;;;;;4087416;28;20057;-70
2023/02/01 02:23:14;;;;;;;21.75;4.47;;;6.60;99.90;;;;;;4093787;28;20031;-70
2023/02/01 02:25:28;;;;;;;13.27;3.72;;;6.50;99.90;;;;;;4087901;28;20058;-69
2023/02/01 02:28:04;;;;;;;12.98;3.25;;;6.50;99.90;;;;;;4091724;28;20865;-70
2023/02/01 02:30:37;;;;;;;23.48;4.38;;;6.50;99.90;;;;;;4091384;28;20058;-71
2023/02/01 02:32:59;;;;;;;17.00;3.63;;;6.40;99.90;;;;;;4095221;28;20483;-70
2023/02/01 02:35:30;;;;;;;13.07;4.43;;;6.40;99.90;;;;;;4092127;28;20034;-69
2023/02/01 02:37:41;;;;;;;15.55;3.45;;;6.30;99.90;;;;;;4078108;28;20480;-70
2023/02/01 02:40:21;;;;;;;14.60;3.45;;;6.30;99.90;;;;;;4093049;28;20152;-70
2023/02/01 02:47:59;;;;;;;18.38;3.78;;;6.20;99.90;;;;;;4092841;28;20032;-70
2023/02/01 02:54:46;;;;;;;26.63;4.43;;;6.20;99.90;;;;;;4091534;28;20050;-69
2023/02/01 03:04:08;;;;;;;25.15;5.00;;;6.10;99.90;;;;;;4095894;28;20442;-70
2023/02/01 03:06:18;;;;;;;14.23;3.30;;;6.10;99.90;;;;;;4098874;28;20027;-70
2023/02/01 03:08:27;;;;;;;18.83;4.22;;;6.10;99.90;;;;;;4096123;28;20043;-70
2023/02/01 03:10:38;;;;;;;18.52;4.22;;;6.10;99.90;;;;;;4094615;28;20086;-70
2023/02/01 03:12:57;;;;;;;14.55;3.30;;;6.10;99.90;;;;;;4096953;28;20090;-71
2023/02/01 03:15:05;;;;;;;17.40;4.13;;;6.10;99.90;;;;;;4094374;28;20036;-70
2023/02/01 03:17:14;;;;;;;7.97;3.17;;;6.10;99.90;;;;;;4082606;29;20122;-70
2023/02/01 03:19:23;;;;;;;17.90;3.92;;;6.20;99.90;;;;;;4076851;29;20530;-70
2023/02/01 03:21:42;;;;;;;17.42;4.22;;;6.10;99.90;;;;;;4091744;28;20133;-70
2023/02/01 03:23:44;;;;;;;23.98;5.65;;;6.20;99.90;;;;;;4094918;29;20043;-70
2023/02/01 03:25:48;;;;;;;18.27;4.65;;;6.20;99.90;;;;;;4092616;28;20122;-70
2023/02/01 03:27:53;;;;;;;21.80;4.65;;;6.20;99.90;;;;;;4093193;28;20390;-70
2023/02/01 03:30:00;;;;;;;19.20;4.07;;;6.20;99.90;;;;;;4097259;28;20037;-70
2023/02/01 03:32:01;;;;;;;20.73;4.63;;;6.20;99.90;;;;;;4094041;28;20024;-70
2023/02/01 03:34:01;;;;;;;21.02;4.95;;;6.20;99.90;;;;;;4094384;28;20122;-70
2023/02/01 03:36:14;;;;;;;19.60;4.72;;;6.30;99.90;;;;;;4094809;28;21064;-70
2023/02/01 03:38:27;;;;;;;23.27;4.80;;;6.20;99.90;;;;;;4093041;28;20039;-70
2023/02/01 03:40:32;;;;;;;22.83;5.10;;;6.20;99.90;;;;;;4095036;28;20043;-70
2023/02/01 03:42:46;;;;;;;25.92;5.20;;;6.20;99.90;;;;;;4099027;28;20063;-70
2023/02/01 03:44:49;;;;;;;17.55;5.00;;;6.20;99.90;;;;;;4094618;28;20072;-70
2023/02/01 03:47:04;;;;;;;16.63;4.03;;;6.20;99.90;;;;;;4094089;28;20123;-70
2023/02/01 03:49:09;;;;;;;18.95;4.10;;;6.30;99.90;;;;;;4095653;28;20066;-70
2023/02/01 03:51:10;;;;;;;20.90;5.00;;;6.30;99.90;;;;;;4097493;28;20503;-69
2023/02/01 03:53:16;;;;;;;19.70;4.57;;;6.30;99.90;;;;;;4096194;28;20094;-70
2023/02/01 03:55:22;;;;;;;24.08;4.90;;;6.40;99.90;;;;;;4094661;28;20061;-70
2023/02/01 03:57:27;;;;;;;22.27;5.07;;;6.40;99.90;;;;;;4094467;28;20027;-70
2023/02/01 03:59:27;;;;;;;20.52;4.72;;;6.30;99.90;;;;;;4095903;28;20115;-70
2023/02/01 04:01:30;;;;;;;20.25;4.97;;;6.30;99.90;;;;;;4094049;28;20031;-70
2023/02/01 04:03:32;;;;;;;27.23;4.70;;;6.40;99.90;;;;;;4090956;28;20043;-70
2023/02/01 04:05:33;;;;;;;20.08;4.78;;;6.40;99.90;;;;;;4092780;28;20039;-70
2023/02/01 04:07:33;;;;;;;27.73;4.82;;;6.30;99.90;;;;;;4095757;28;20051;-70
2023/02/01 04:09:34;;;;;;;20.27;4.82;;;6.30;99.90;;;;;;4096085;28;20043;-70
2023/02/01 04:11:34;;;;;;;23.75;5.13;;;6.30;99.90;;;;;;4097902;28;20101;-70
2023/02/01 04:13:35;;;;;;;21.20;5.20;;;6.30;99.90;;;;;;4095174;28;20061;-71
2023/02/01 04:15:36;;;;;;;19.30;4.90;;;6.30;99.90;;;;;;4094465;28;20031;-71
2023/02/01 04:17:36;;;;;;;23.20;4.38;;;6.30;99.90;;;;;;4091101;28;20035;-70
2023/02/01 04:19:37;;;;;;;23.98;5.20;;;6.20;99.90;;;;;;4095887;28;20423;-70
2023/02/01 04:21:38;;;;;;;19.95;4.47;;;6.30;99.90;;;;;;4094869;28;20035;-70
2023/02/01 04:23:38;;;;;;;22.02;4.00;;;6.30;99.90;;;;;;4094492;28;20391;-70
2023/02/01 04:25:39;;;;;;;19.08;4.80;;;6.30;99.90;;;;;;4094541;28;20038;-70
2023/02/01 04:27:39;;;;;;;16.58;4.68;;;6.30;99.90;;;;;;4096109;28;20427;-70
2023/02/01 04:29:40;;;;;;;18.35;4.10;;;6.20;99.90;;;;;;4096731;28;20031;-71
2023/02/01 04:31:41;;;;;;;26.13;4.68;;;6.20;99.90;;;;;;4093513;28;20368;-71
2023/02/01 04:33:42;;;;;;;24.30;4.65;;;6.20;99.90;;;;;;4097793;28;20090;-70
2023/02/01 04:35:43;;;;;;;27.38;5.05;;;6.20;99.90;;;;;;4097270;28;20040;-70
2023/02/01 04:37:43;;;;;;;16.13;4.47;;;6.20;99.90;;;;;;4099274;28;20500;-70
2023/02/01 04:39:44;;;;;;;19.10;4.07;;;6.20;99.90;;;;;;4096152;28;20035;-70
2023/02/01 04:41:44;;;;;;;23.05;4.78;;;6.20;99.90;;;;;;4095804;28;20498;-70
2023/02/01 04:43:46;;;;;;;15.93;4.47;;;6.20;99.90;;;;;;4092255;28;20406;-69
2023/02/01 04:45:48;;;;;;;21.10;5.18;;;6.30;99.90;;;;;;4095409;28;20050;-70
2023/02/01 04:47:49;;;;;;;28.75;5.40;;;6.20;99.90;;;;;;4092747;28;20122;-70
2023/02/01 04:49:49;;;;;;;18.05;4.63;;;6.20;99.90;;;;;;4095846;28;20438;-70
2023/02/01 04:51:50;;;;;;;21.45;4.72;;;6.20;99.90;;;;;;4094464;28;20114;-70
2023/02/01 04:53:50;;;;;;;20.33;4.70;;;6.20;99.90;;;;;;4097572;28;20088;-70
2023/02/01 04:55:51;;;;;;;26.55;5.28;;;6.20;99.90;;;;;;4094589;28;20035;-70
2023/02/01 04:57:52;;;;;;;20.80;4.80;;;6.20;99.90;;;;;;4095621;28;20043;-70
2023/02/01 04:59:52;;;;;;;16.48;3.78;;;6.20;99.90;;;;;;4095279;28;20046;-70
2023/02/01 05:01:53;;;;;;;24.95;4.55;;;6.20;99.90;;;;;;4093063;28;20070;-70
2023/02/01 05:03:54;;;;;;;20.08;4.45;;;6.20;99.90;;;;;;4094339;28;20043;-70
2023/02/01 05:05:54;;;;;;;21.25;4.90;;;6.20;99.90;;;;;;4094308;28;20035;-70
2023/02/01 05:07:55;;;;;;;22.98;4.60;;;6.20;99.90;;;;;;4093090;28;20062;-70
2023/02/01 05:09:56;;;;;;;25.70;5.65;;;6.20;99.90;;;;;;4099079;28;20498;-70
2023/02/01 05:14:16;;;;;;;19.63;3.58;;;6.10;99.90;;;;;;4097632;28;20501;-70
2023/02/01 05:16:17;;;;;;;23.05;4.88;;;6.10;99.90;;;;;;4092464;28;20039;-70
2023/02/01 05:18:17;;;;;;;25.52;4.57;;;6.10;99.90;;;;;;4091775;28;20038;-70
2023/02/01 05:20:18;;;;;;;20.50;4.85;;;6.10;99.90;;;;;;4096617;28;20031;-70
2023/02/01 05:22:19;;;;;;;25.40;4.57;;;6.10;99.90;;;;;;4093425;28;20038;-71
2023/02/01 05:24:20;;;;;;;27.60;5.50;;;6.10;99.90;;;;;;4089834;28;20051;-70
2023/02/01 05:26:21;;;;;;;19.77;4.60;;;6.10;99.90;;;;;;4094049;28;20125;-71
2023/02/01 05:28:21;;;;;;;26.52;4.53;;;6.20;99.90;;;;;;4094177;28;20443;-70
2023/02/01 05:30:22;;;;;;;18.52;4.05;;;6.10;99.90;;;;;;4097474;28;20047;-70
2023/02/01 05:32:22;;;;;;;30.23;5.72;;;6.10;99.90;;;;;;4095985;28;20122;-69
2023/02/01 05:34:23;;;;;;;27.08;5.50;;;6.10;99.90;;;;;;4091752;28;20605;-70
2023/02/01 05:36:23;;;;;;;22.85;4.70;;;6.00;99.90;;;;;;4093369;28;20042;-70
2023/02/01 05:38:24;;;;;;;25.88;4.85;;;6.00;99.90;;;;;;4091208;28;20039;-70
2023/02/01 05:40:24;;;;;;;21.73;4.75;;;6.00;99.90;;;;;;4093579;28;20067;-70
2023/02/01 05:42:25;;;;;;;25.23;4.75;;;6.00;99.90;;;;;;4091639;28;20039;-70
2023/02/01 05:44:26;;;;;;;26.25;4.90;;;6.00;99.90;;;;;;4094633;28;20550;-70
2023/02/01 05:46:26;;;;;;;25.95;5.30;;;6.00;99.90;;;;;;4090383;28;20039;-70
2023/02/01 05:48:27;;;;;;;26.65;4.75;;;6.00;99.90;;;;;;4092141;28;20043;-70
2023/02/01 05:50:27;;;;;;;26.35;4.97;;;6.00;99.90;;;;;;4096600;28;20443;-70
2023/02/01 05:52:28;;;;;;;21.35;4.43;;;6.00;99.90;;;;;;4093439;28;20031;-70
2023/02/01 05:54:29;;;;;;;26.08;5.20;;;6.00;99.90;;;;;;4096683;28;20059;-71
2023/02/01 05:56:29;;;;;;;18.13;4.18;;;6.00;99.90;;;;;;4094214;28;25281;-70
2023/02/01 05:58:30;;;;;;;19.50;4.82;;;6.00;99.90;;;;;;4097842;28;20499;-71
2023/02/01 06:00:31;;;;;;;22.77;3.88;;;6.00;99.90;;;;;;4095774;28;20503;-70
2023/02/01 06:02:32;;;;;;;23.63;4.75;;;6.00;99.90;;;;;;4093150;28;20031;-70
2023/02/01 06:04:32;;;;;;;26.55;5.90;;;6.00;99.90;;;;;;4093259;28;20035;-70
2023/02/01 06:06:33;;;;;;;21.80;3.92;;;6.00;99.90;;;;;;4092463;28;20058;-70
2023/02/01 06:08:34;;;;;;;21.25;4.65;;;6.00;99.90;;;;;;4094257;28;20041;-70
2023/02/01 06:10:35;;;;;;;28.92;5.63;;;6.00;99.90;;;;;;4092919;28;20126;-70
2023/02/01 06:12:35;;;;;;;24.15;4.85;;;6.10;99.90;;;;;;4094319;28;20470;-70
2023/02/01 06:14:36;;;;;;;30.05;5.57;;;6.10;99.90;;;;;;4093654;28;20069;-70
2023/02/01 06:16:37;;;;;;;29.10;4.70;;;6.10;99.90;;;;;;4093522;28;20062;-70
2023/02/01 06:18:37;;;;;;;30.77;5.43;;;6.10;99.90;;;;;;4091944;28;20518;-70
2023/02/01 06:20:38;;;;;;;21.20;5.03;;;6.10;99.90;;;;;;4081016;28;20389;-70
2023/02/01 06:22:40;;;;;;;25.15;4.65;;;6.10;99.90;;;;;;4089554;28;21238;-70
2023/02/01 06:24:40;;;;;;;24.45;5.40;;;6.10;99.90;;;;;;4089716;28;20054;-70
2023/02/01 06:26:41;;;;;;;24.63;5.40;;;6.20;99.90;;;;;;4093139;28;20027;-70
2023/02/01 06:28:42;;;;;;;25.27;5.45;;;6.20;99.90;;;;;;4096124;28;20042;-70
2023/02/01 06:30:45;;;;;;;21.33;5.00;;;6.20;99.90;;;;;;4098383;28;20512;-70
2023/02/01 06:32:53;;;;;;;24.05;4.80;;;6.20;99.90;;;;;;4095926;28;20039;-69
2023/02/01 06:34:55;;;;;;;23.00;4.60;;;6.20;99.90;;;;;;4095153;28;20041;-70
2023/02/01 06:36:56;;;;;;;21.60;4.22;;;6.20;99.90;;;;;;4098779;28;20090;-70
2023/02/01 06:38:56;;;;;;;16.40;4.07;;;6.20;99.90;;;;;;4097985;28;20043;-70
2023/02/01 06:40:57;;;;;;;23.63;5.35;;;6.20;99.90;;;;;;4096130;28;20039;-70
2023/02/01 06:42:58;;;;;;;33.58;5.25;;;6.20;99.90;;;;;;4092622;28;20597;-70
2023/02/01 06:44:59;;;;;;;33.10;5.32;;;6.30;99.90;;;;;;4099438;28;20031;-70
2023/02/01 06:46:59;;;;;;;29.35;5.15;;;6.20;99.90;;;;;;4096960;28;20093;-70
2023/02/01 06:49:00;;;;;;;24.70;5.28;;;6.20;99.90;;;;;;4095961;28;20035;-70
2023/02/01 06:51:00;;;;;;;31.77;6.15;;;6.20;99.90;;;;;;4093386;28;20031;-70
2023/02/01 06:53:01;;;;;;;24.50;5.28;;;6.20;99.90;;;;;;4095049;28;20074;-70
2023/02/01 06:55:01;;;;;;;25.08;5.68;;;6.30;99.90;;;;;;4095102;28;20384;-71
2023/02/01 06:57:02;;;;;;;44.67;13.93;;;6.20;99.90;;;;;;4097704;28;20406;-70
2023/02/01 06:59:04;;;;;;;23.48;4.75;;;6.30;99.90;;;;;;4096784;28;20050;-70
2023/02/01 07:01:06;;;;;;;25.03;5.17;;;6.30;99.90;;;;;;4095836;28;20036;-70
2023/02/01 07:03:07;;;;;;;21.33;4.78;;;6.30;99.90;;;;;;4096063;28;20043;-69
2023/02/01 07:05:08;;;;;;;26.30;5.40;;;6.30;99.90;;;;;;4099611;28;20019;-70
2023/02/01 07:07:08;;;;;;;28.15;5.03;;;6.30;99.90;;;;;;4094860;28;20399;-70
2023/02/01 07:09:09;;;;;;;26.25;4.93;;;6.30;99.90;;;;;;4095295;28;20050;-70
2023/02/01 07:11:11;;;;;;;26.02;4.85;;;6.40;99.90;;;;;;4092723;28;20031;-70
2023/02/01 07:13:12;;;;;;;28.92;5.00;;;6.30;99.90;;;;;;4096612;28;20031;-70
2023/02/01 07:15:12;;;;;;;24.60;4.95;;;6.30;99.90;;;;;;4095565;28;20505;-69
2023/02/01 07:17:13;;;;;;;26.77;5.78;;;6.40;99.90;;;;;;4096018;28;20058;-70
2023/02/01 07:19:14;;;;;;;30.48;5.00;;;6.40;99.90;;;;;;4093483;28;20020;-70
2023/02/01 07:21:14;;;;;;;28.05;4.90;;;6.40;99.90;;;;;;4095909;28;20034;-69
2023/02/01 07:23:15;;;;;;;24.45;5.50;;;6.30;99.90;;;;;;4094678;28;20625;-70
2023/02/01 07:25:15;;;;;;;23.30;5.40;;;6.40;99.90;;;;;;4093973;28;20040;-71
2023/02/01 07:27:16;;;;;;;28.50;5.50;;;6.40;99.90;;;;;;4091571;28;20043;-71
2023/02/01 07:29:17;;;;;;;32.78;6.15;;;6.40;99.90;;;;;;4094035;28;20475;-71
2023/02/01 07:31:21;;;;;;;20.58;4.70;;;6.40;99.90;;;;;;4096557;28;20110;-70
2023/02/01 07:33:23;;;;;;;30.75;5.60;;;6.40;99.90;;;;;;4076091;29;20452;-70
2023/02/01 07:35:24;;;;;;;29.45;5.38;;;6.40;99.90;;;;;;4092423;28;20039;-70
2023/02/01 07:37:24;;;;;;;31.10;5.28;;;6.40;99.90;;;;;;4091486;28;20546;-70
2023/02/01 07:39:27;;;;;;;22.98;4.97;;;6.40;99.90;;;;;;4092143;28;20043;-70
2023/02/01 07:41:28;;;;;;;26.33;5.70;;;6.40;99.90;;;;;;4095427;28;20407;-70
2023/02/01 07:43:29;;;;;;;33.08;5.50;;;6.40;99.90;;;;;;4094537;28;20042;-70
2023/02/01 07:45:30;;;;;;;21.08;4.32;;;6.40;99.90;;;;;;4093936;28;20039;-70
2023/02/01 07:47:30;;;;;;;42.65;6.18;;;6.40;99.90;;;;;;4090972;28;20550;-70
2023/02/01 07:49:31;;;;;;;22.17;4.65;;;6.40;99.90;;;;;;4086579;28;20027;-70
2023/02/01 07:51:32;;;;;;;23.02;4.68;;;6.40;99.90;;;;;;4095471;28;20486;-70
2023/02/01 07:53:34;;;;;;;21.02;4.97;;;6.40;99.90;;;;;;4092729;28;20028;-70
2023/02/01 07:55:37;;;;;;;31.08;5.00;;;6.40;99.90;;;;;;4092834;28;20383;-70
2023/02/01 07:57:38;;;;;;;26.77;5.20;;;6.40;99.90;;;;;;4089055;28;20095;-71
2023/02/01 08:01:19;;;;;;;27.38;5.45;;;6.40;99.90;;;;;;4095716;28;20047;-70
2023/02/01 08:01:59;;;;;;;27.60;5.22;;;6.40;99.90;;;;;;4095774;28;20363;-70
2023/02/01 08:04:02;;;;;;;28.88;5.30;;;6.40;99.90;;;;;;4095216;28;20047;-70
2023/02/01 08:06:02;;;;;;;;;;;6.40;99.90;;;;;;4093964;28;20089;-71
2023/02/01 08:08:03;;;;;;;26.25;4.82;;;6.40;99.90;;;;;;4097654;28;20000;-70
2023/02/01 08:10:10;;;;;;;27.17;4.97;;;6.40;99.90;;;;;;4095006;28;20133;-70
2023/02/01 08:12:10;;;;;;;33.15;6.22;;;6.40;99.90;;;;;;4093105;28;20703;-70
2023/02/01 08:14:11;;;;;;;31.42;5.85;;;6.40;99.90;;;;;;4094657;28;20038;-70
2023/02/01 08:16:13;;;;;;;36.22;6.53;;;6.40;99.90;;;;;;4095328;28;20023;-70
2023/02/01 08:18:16;;;;;;;22.20;4.32;;;6.40;99.90;;;;;;4094259;28;20038;-70
2023/02/01 08:20:21;;;;;;;30.33;5.95;;;6.40;99.90;;;;;;4094279;28;20044;-69
2023/02/01 08:22:22;;;;;;;26.05;5.28;;;6.40;99.90;;;;;;4093638;28;20119;-70
2023/02/01 08:24:22;;;;;;;33.95;6.18;;;6.40;99.90;;;;;;4094299;28;20071;-70
2023/02/01 08:26:25;;;;;;;19.98;4.68;;;6.40;99.90;;;;;;4095543;29;20134;-70
2023/02/01 08:28:26;;;;;;;24.05;4.75;;;6.40;99.90;;;;;;4094806;28;20074;-70
2023/02/01 08:30:27;;;;;;;23.90;4.70;;;6.40;99.90;;;;;;4093058;28;20063;-71
2023/02/01 08:32:27;;;;;;;21.63;4.75;;;6.40;99.90;;;;;;4079147;29;20167;-70
2023/02/01 08:34:28;;;;;;;24.02;4.50;;;6.40;99.90;;;;;;4093882;28;20031;-70
2023/02/01 08:36:30;;;;;;;29.85;6.45;;;6.50;99.90;;;;;;4093853;28;20119;-70
2023/02/01 08:38:31;;;;;;;26.58;5.47;;;6.50;99.90;;;;;;4095288;28;20035;-70
2023/02/01 08:40:31;;;;;;;24.20;5.47;;;6.50;99.90;;;;;;4093129;28;20066;-70
2023/02/01 08:42:50;;;;;;;22.70;5.38;;;6.50;99.90;;;;;;4094960;28;20066;-70
2023/02/01 08:44:51;;;;;;;22.08;4.50;;;6.60;99.90;;;;;;4094040;28;20047;-70
2023/02/01 08:46:52;;;;;;;25.02;5.03;;;6.50;99.90;;;;;;4091891;28;20039;-69
2023/02/01 08:48:52;;;;;;;29.35;5.72;;;6.60;99.90;;;;;;4094477;28;20038;-70
2023/02/01 08:50:53;;;;;;;24.02;5.38;;;6.60;99.90;;;;;;4093982;28;20055;-70
2023/02/01 08:52:54;;;;;;;27.48;5.03;;;6.60;99.90;;;;;;4096477;28;20054;-70
2023/02/01 08:54:54;;;;;;;28.92;5.32;;;6.70;99.90;;;;;;4095191;28;20028;-70
2023/02/01 08:56:56;;;;;;;19.67;5.03;;;6.60;99.90;;;;;;4095164;28;20078;-70
2023/02/01 08:58:56;;;;;;;17.88;4.15;;;6.70;99.90;;;;;;4095839;28;20057;-70
2023/02/01 09:00:57;;;;;;;22.52;5.20;;;6.70;99.90;;;;;;4093820;28;20062;-70
2023/02/01 09:02:58;;;;;;;27.80;5.57;;;6.70;99.90;;;;;;4094816;28;20533;-70
2023/02/01 09:04:58;;;;;;;31.65;5.60;;;6.60;99.90;;;;;;4093169;28;20130;-70
2023/02/01 09:06:59;;;;;;;26.75;5.30;;;6.70;99.90;;;;;;4094712;28;20043;-70
2023/02/01 09:09:00;;;;;;;19.50;4.47;;;6.60;99.90;;;;;;4092258;28;20051;-69
2023/02/01 09:11:06;;;;;;;22.38;4.75;;;6.60;99.90;;;;;;4091382;28;20062;-70
2023/02/01 09:13:08;;;;;;;36.70;5.78;;;6.60;99.90;;;;;;4094821;28;20057;-69
2023/02/01 09:15:08;;;;;;;28.58;5.28;;;6.60;99.90;;;;;;4092339;28;20406;-70
2023/02/01 09:17:09;;;;;;;24.92;5.03;;;6.50;99.90;;;;;;4095489;28;20110;-70
2023/02/01 09:19:10;;;;;;;24.65;5.78;;;6.60;99.90;;;;;;4090379;28;20057;-70
2023/02/01 09:21:10;;;;;;;23.23;4.93;;;6.60;99.90;;;;;;4092509;28;20090;-70
2023/02/01 09:23:11;;;;;;;26.70;5.40;;;6.60;99.90;;;;;;4093278;28;20035;-70
2023/02/01 09:25:11;;;;;;;28.60;6.25;;;6.60;99.90;;;;;;4094469;28;20543;-71
2023/02/01 09:27:12;;;;;;;21.55;5.15;;;6.70;99.90;;;;;;4093144;28;20115;-70
2023/02/01 09:29:13;;;;;;;24.85;5.47;;;6.70;99.90;;;;;;4095046;28;20114;-70
2023/02/01 09:31:13;;;;;;;27.40;5.15;;;6.70;99.90;;;;;;4093142;28;20058;-70
2023/02/01 09:33:14;;;;;;;21.75;4.63;;;6.70;99.90;;;;;;4093236;28;20470;-69
2023/02/01 09:35:15;;;;;;;22.90;6.03;;;6.80;99.90;;;;;;4093353;28;20050;-70
2023/02/01 09:37:15;;;;;;;30.27;6.45;;;6.90;99.90;;;;;;4093127;28;20035;-70
2023/02/01 09:39:16;;;;;;;30.67;5.80;;;7.00;99.90;;;;;;4094233;28;20513;-69
2023/02/01 09:41:39;;;;;;;25.58;5.47;;;7.00;99.90;;;;;;4093426;28;20036;-70
2023/02/01 09:44:03;;;;;;;26.48;6.05;;;7.10;99.90;;;;;;4084573;28;20046;-70
2023/02/01 09:46:24;;;;;;;26.83;5.25;;;7.20;99.90;;;;;;4086143;28;20039;-69
2023/02/01 09:48:31;;;;;;;26.55;6.15;;;7.20;99.90;;;;;;4091546;28;20031;-69
2023/02/01 09:50:39;;;;;;;22.08;4.82;;;7.20;99.90;;;;;;4090872;28;20035;-70
2023/02/01 09:52:57;;;;;;;23.02;5.10;;;7.30;99.90;;;;;;4093201;28;20498;-70
2023/02/01 09:55:30;;;;;;;17.17;4.30;;;7.30;99.90;;;;;;4095876;28;20043;-69
2023/02/01 09:57:50;;;;;;;25.47;4.63;;;7.30;99.90;;;;;;4080660;28;20039;-69
2023/02/01 10:00:04;;;;;;;23.60;4.80;;;7.30;99.90;;;;;;4091019;28;20024;-70
2023/02/01 10:02:13;;;;;;;22.17;5.45;;;7.40;99.90;;;;;;4093924;28;20027;-70
2023/02/01 10:04:16;;;;;;;25.85;5.13;;;7.40;99.90;;;;;;4092399;28;20468;-70
2023/02/01 10:06:58;;;;;;;27.80;5.35;;;7.50;99.90;;;;;;4092670;28;20027;-70
2023/02/01 10:09:14;;;;;;;24.45;5.45;;;7.60;99.90;;;;;;4067247;29;20134;-69
2023/02/01 10:11:47;;;;;;;24.45;5.65;;;7.60;99.90;;;;;;4093508;28;20071;-69
2023/02/01 10:14:12;;;;;;;20.58;4.78;;;7.60;99.90;;;;;;4091331;28;20069;-70
2023/02/01 10:16:19;;;;;;;22.02;4.82;;;7.60;99.90;;;;;;4093707;28;20055;-69
2023/02/01 10:18:57;;;;;;;18.27;5.10;;;7.50;99.90;;;;;;4094035;28;20067;-69
2023/02/01 10:21:38;;;;;;;22.35;5.53;;;7.50;99.90;;;;;;4082695;28;20451;-69
2023/02/01 10:24:01;;;;;;;26.58;5.30;;;7.50;99.90;;;;;;4092997;28;20453;-69
2023/02/01 10:26:26;;;;;;;22.88;6.00;;;7.50;99.90;;;;;;4092594;28;20039;-69
2023/02/01 10:28:27;;;;;;;23.98;4.97;;;7.50;99.90;;;;;;4091539;28;20044;-69
2023/02/01 10:30:44;;;;;;;24.60;5.88;;;7.50;99.90;;;;;;4092962;28;20043;-69
2023/02/01 10:32:44;;;;;;;34.00;6.20;;;7.50;99.90;;;;;;4091704;28;20513;-69
2023/02/01 10:34:51;;;;;;;24.70;5.93;;;7.50;99.90;;;;;;4093830;28;20059;-70
2023/02/01 10:37:22;;;;;;;30.77;5.10;;;7.50;99.90;;;;;;4092801;28;20324;-70
2023/02/01 10:39:23;;;;;;;29.25;5.32;;;7.50;99.90;;;;;;4092318;28;20525;-70
2023/02/01 10:41:31;;;;;;;25.73;5.70;;;7.60;99.90;;;;;;4093877;28;20039;-69
2023/02/01 10:43:33;;;;;;;22.58;4.82;;;7.60;99.90;;;;;;4093292;28;20035;-70
2023/02/01 10:45:34;;;;;;;;;;;7.60;99.90;;;;;;4093818;28;20035;-69
2023/02/01 10:47:34;;;;;;;28.73;5.30;;;7.60;99.90;;;;;;4093053;28;19962;-70
2023/02/01 10:49:47;;;;;;;27.63;5.68;;;7.60;99.90;;;;;;4095332;28;20047;-69
2023/02/01 10:52:02;;;;;;;28.38;4.65;;;7.60;99.90;;;;;;4093528;28;20051;-70
2023/02/01 10:54:16;;;;;;;31.45;5.93;;;7.60;99.90;;;;;;4093377;28;20085;-70
2023/02/01 10:56:26;;;;;;;21.20;4.78;;;7.60;99.90;;;;;;4091206;28;20035;-69
2023/02/01 10:58:31;;;;;;;27.33;5.55;;;7.60;99.90;;;;;;4093715;28;20050;-70
2023/02/01 11:00:47;;;;;;;24.75;6.25;;;7.70;99.90;;;;;;4092735;28;20431;-70
2023/02/01 11:02:50;;;;;;;26.35;5.57;;;7.70;99.90;;;;;;4093017;28;20046;-69
2023/02/01 11:04:57;;;;;;;22.35;5.32;;;7.70;99.90;;;;;;4077478;29;20052;-69
2023/02/01 11:07:18;;;;;;;22.75;4.70;;;7.80;99.90;;;;;;4092378;28;20499;-70
2023/02/01 11:09:22;;;;;;;19.60;4.82;;;7.80;99.90;;;;;;4090595;28;20110;-69